Center Grove, Iowa
Current Conditions -  °F | °C
As of 5:23 AM on Friday 24 Oct 2014 (Local Time) from KDBQ Reporting Station
Moderate Fog Moderate Fog  
Wind Chill: 51°   Ceiling: 100
Heat Index: 51°   Visibility: 0.25mi
Dew Point: 51°   Wind: 0mph
Humidity: 100%   Direction: NA
Pressure: 30.05"   Gusts: NA
Location:  42.549°N, 90.6988°W
Report Text: KDBQ 241023Z AUTO 00000KT 1/4SM R36/1000V1200FT FG VV001 11/11 A3005 RMK AO2 T01060106
Loading
Personal Weather Stations






























Interactive Weather Map
Tropical Storm Tracking
New forecast layout! Learn more

10-Day Weather Forecast

Advertisements
Track Severe Weather on mobile